Time;durP1;ratioP1;P1;durP2;ratioP2;P2;SDS_P1;SDS_P2;PMS_P1;PMS_P2;Temp;Humidity;BMP_temperature;BMP_pressure;BME280_temperature;BME280_humidity;BME280_pressure;Samples;Min_cycle;Max_cycle;Signal;HPM_P1;HPM_P2
2021/04/30 14:54:40;;;;;;;1.15;0.90;;;11.10;73.20;;;;;;5130124;27;20138;-74
2021/04/30 14:57:09;;;;;;;1.27;0.95;;;11.00;74.70;;;;;;5091022;28;20058;-75
2021/04/30 14:59:34;;;;;;;2.17;1.35;;;10.90;77.00;;;;;;5091596;28;20056;-76
2021/04/30 15:02:00;;;;;;;1.83;1.25;;;11.00;79.00;;;;;;5091298;28;20058;-75
2021/04/30 15:04:26;;;;;;;2.17;1.40;;;11.00;80.30;;;;;;5091159;28;20070;-76
2021/04/30 15:06:51;;;;;;;1.77;1.17;;;11.10;81.10;;;;;;5091723;28;20043;-75
2021/04/30 15:09:17;;;;;;;1.45;1.05;;;11.10;81.50;;;;;;5109209;28;20047;-73
2021/04/30 15:11:43;;;;;;;2.63;1.60;;;11.20;81.70;;;;;;5091049;28;20130;-74
2021/04/30 15:14:11;;;;;;;1.75;1.40;;;11.20;81.90;;;;;;5074161;28;20040;-74
2021/04/30 15:16:39;;;;;;;2.35;1.35;;;11.30;82.00;;;;;;5109156;28;20130;-74
2021/04/30 15:19:05;;;;;;;0.80;0.80;;;11.30;82.10;;;;;;5090904;28;20401;-74
2021/04/30 15:21:32;;;;;;;1.13;0.90;;;11.40;82.10;;;;;;5109302;28;20114;-73
2021/04/30 15:23:58;;;;;;;1.75;1.10;;;11.40;81.90;;;;;;5089315;28;20127;-74
2021/04/30 15:26:24;;;;;;;1.58;1.00;;;11.50;82.00;;;;;;5109099;28;20470;-74
2021/04/30 15:28:50;;;;;;;1.58;1.10;;;11.50;81.90;;;;;;5109302;28;20040;-74
2021/04/30 15:31:17;;;;;;;1.60;1.02;;;11.50;81.90;;;;;;5090734;28;20039;-74
2021/04/30 15:33:49;;;;;;;1.20;0.90;;;11.50;81.80;;;;;;5108891;28;20094;-74
2021/04/30 15:36:15;;;;;;;1.48;1.20;;;11.60;81.80;;;;;;5108887;28;20413;-74
2021/04/30 15:38:40;;;;;;;1.52;1.00;;;11.60;81.70;;;;;;5108924;28;20032;-74
2021/04/30 15:41:06;;;;;;;1.67;1.13;;;11.50;81.60;;;;;;5089775;28;20036;-74
2021/04/30 15:43:32;;;;;;;1.90;1.23;;;11.50;81.70;;;;;;5090521;28;20044;-76
2021/04/30 15:45:58;;;;;;;2.10;1.58;;;11.50;81.70;;;;;;5090519;28;20039;-75
2021/04/30 15:48:24;;;;;;;3.20;1.70;;;11.50;81.60;;;;;;5090437;28;20079;-74
2021/04/30 15:50:50;;;;;;;3.90;2.10;;;11.50;81.70;;;;;;5108717;28;20530;-76
2021/04/30 15:53:16;;;;;;;3.75;2.10;;;11.50;81.60;;;;;;5073546;28;20047;-75
2021/04/30 15:55:42;;;;;;;2.47;1.50;;;11.50;81.50;;;;;;5090452;28;20404;-75
2021/04/30 15:58:08;;;;;;;4.15;2.45;;;11.50;81.60;;;;;;5108531;28;20035;-76
2021/04/30 16:00:35;;;;;;;3.13;1.92;;;11.50;81.50;;;;;;5074184;28;20042;-74
2021/04/30 16:03:01;;;;;;;4.00;2.30;;;11.40;81.50;;;;;;5114360;28;20039;-74
2021/04/30 16:05:27;;;;;;;3.53;2.20;;;11.40;81.40;;;;;;5103368;28;20050;-75
2021/04/30 16:07:52;;;;;;;3.78;2.42;;;11.40;81.40;;;;;;5068965;28;20566;-75
2021/04/30 16:10:18;;;;;;;3.50;2.40;;;11.40;81.40;;;;;;5080973;28;20047;-74
2021/04/30 16:12:43;;;;;;;3.85;2.40;;;11.30;81.30;;;;;;5080306;28;20044;-74
2021/04/30 16:15:10;;;;;;;3.00;2.05;;;11.30;81.40;;;;;;5097681;28;20071;-74
2021/04/30 16:17:36;;;;;;;3.53;2.03;;;11.30;81.50;;;;;;5080606;28;20043;-74
2021/04/30 16:20:03;;;;;;;2.88;2.03;;;11.40;81.30;;;;;;5079705;28;20044;-74
2021/04/30 16:22:29;;;;;;;4.15;2.42;;;11.30;81.20;;;;;;5082286;28;20107;-74
2021/04/30 16:24:54;;;;;;;3.45;1.95;;;11.30;81.20;;;;;;5080338;28;20063;-75
2021/04/30 16:27:22;;;;;;;2.78;1.80;;;11.30;81.20;;;;;;5077638;28;20048;-74
2021/04/30 16:29:47;;;;;;;2.63;1.75;;;11.30;81.80;;;;;;5060566;28;20032;-74
2021/04/30 16:32:13;;;;;;;3.10;1.70;;;11.30;81.10;;;;;;5078863;28;20067;-74
2021/04/30 16:34:39;;;;;;;2.40;1.70;;;11.30;81.20;;;;;;5077718;28;20513;-74
2021/04/30 16:37:05;;;;;;;2.08;1.58;;;11.30;81.10;;;;;;5078227;28;20542;-74
2021/04/30 16:39:31;;;;;;;2.33;1.60;;;11.30;81.20;;;;;;5096565;28;20040;-74
2021/04/30 16:41:56;;;;;;;3.53;2.10;;;11.30;81.20;;;;;;5098383;28;20042;-74
2021/04/30 16:44:22;;;;;;;3.65;2.00;;;11.30;81.10;;;;;;5077987;28;20041;-74
2021/04/30 16:46:48;;;;;;;3.05;1.80;;;11.10;81.00;;;;;;5094283;28;20055;-73
2021/04/30 16:49:14;;;;;;;3.30;1.88;;;11.10;81.10;;;;;;5076569;28;20052;-73
2021/04/30 16:51:39;;;;;;;2.13;1.55;;;11.00;81.30;;;;;;5058153;28;20127;-74
2021/04/30 16:54:09;;;;;;;4.00;2.13;;;11.00;81.40;;;;;;5094101;28;20060;-75
2021/04/30 16:56:36;;;;;;;3.78;2.10;;;11.00;81.50;;;;;;5076822;28;20036;-73
2021/04/30 16:59:04;;;;;;;2.88;1.92;;;10.90;81.50;;;;;;5077169;28;20126;-73
2021/04/30 17:01:30;;;;;;;2.75;1.95;;;10.80;81.60;;;;;;5094147;28;20117;-73
2021/04/30 17:03:56;;;;;;;2.80;1.77;;;10.70;81.70;;;;;;5096251;28;20044;-74
2021/04/30 17:06:23;;;;;;;3.50;1.95;;;10.60;81.70;;;;;;5088281;28;20398;-74
2021/04/30 17:08:49;;;;;;;3.35;2.20;;;10.50;81.80;;;;;;5088055;28;20066;-74
2021/04/30 17:11:15;;;;;;;3.63;2.22;;;10.50;82.10;;;;;;5108306;28;20053;-74
2021/04/30 17:13:41;;;;;;;3.17;2.08;;;10.40;82.20;;;;;;5059673;28;20056;-75
2021/04/30 17:16:07;;;;;;;2.40;1.75;;;10.20;82.30;;;;;;5088561;28;20044;-75
2021/04/30 17:18:33;;;;;;;3.00;1.65;;;10.10;82.60;;;;;;5090172;28;20040;-76
2021/04/30 17:21:00;;;;;;;2.67;1.77;;;10.10;82.70;;;;;;5110252;28;20040;-75
2021/04/30 17:23:27;;;;;;;2.38;1.60;;;10.00;82.70;;;;;;5094717;28;20051;-75
2021/04/30 17:25:54;;;;;;;2.25;1.50;;;10.00;82.80;;;;;;5099877;28;20044;-75
2021/04/30 17:28:20;;;;;;;2.15;1.50;;;10.00;82.90;;;;;;5076797;28;20040;-75
2021/04/30 17:30:47;;;;;;;2.97;1.58;;;9.90;82.90;;;;;;5080081;28;20051;-76
2021/04/30 17:33:14;;;;;;;2.55;1.73;;;9.80;82.90;;;;;;5080114;28;20053;-75
2021/04/30 17:35:39;;;;;;;2.92;1.70;;;9.70;83.00;;;;;;5100064;28;20139;-76
2021/04/30 17:38:05;;;;;;;2.58;1.70;;;9.70;83.10;;;;;;5111301;28;20036;-75
2021/04/30 17:40:32;;;;;;;2.53;1.60;;;9.70;83.20;;;;;;5112599;28;20024;-76
2021/04/30 17:42:59;;;;;;;2.20;1.50;;;9.60;83.20;;;;;;5117769;28;20020;-76
2021/04/30 17:45:26;;;;;;;2.70;1.52;;;9.60;83.30;;;;;;5114446;28;20040;-76
2021/04/30 17:47:52;;;;;;;3.33;1.67;;;9.60;83.20;;;;;;5082741;28;20048;-76
2021/04/30 17:50:18;;;;;;;2.65;1.63;;;9.50;83.30;;;;;;5100215;28;20039;-76
2021/04/30 17:52:43;;;;;;;2.17;1.27;;;9.50;83.30;;;;;;5116696;28;20111;-76
2021/04/30 17:55:10;;;;;;;2.08;1.50;;;9.50;83.40;;;;;;5097865;28;20083;-77
2021/04/30 17:57:37;;;;;;;2.95;1.83;;;9.50;83.20;;;;;;5117768;28;20052;-76
2021/04/30 18:00:07;;;;;;;2.10;1.48;;;9.50;83.30;;;;;;5099542;28;20047;-76
2021/04/30 18:02:32;;;;;;;1.70;1.23;;;9.50;83.40;;;;;;5114919;28;20048;-75
2021/04/30 18:04:58;;;;;;;1.73;1.30;;;9.40;83.30;;;;;;5115345;28;20040;-75
2021/04/30 18:07:24;;;;;;;1.83;1.27;;;9.40;83.40;;;;;;5116713;28;20032;-75
2021/04/30 18:09:50;;;;;;;2.35;1.63;;;9.40;83.40;;;;;;5098055;28;20033;-75
2021/04/30 18:12:16;;;;;;;1.90;1.40;;;9.40;83.50;;;;;;5097230;28;20070;-76
2021/04/30 18:14:42;;;;;;;2.95;1.70;;;9.30;83.40;;;;;;5082448;28;20100;-76
2021/04/30 18:17:11;;;;;;;2.10;1.40;;;9.30;83.40;;;;;;5100155;28;20052;-77
2021/04/30 18:19:37;;;;;;;1.15;1.02;;;9.30;83.50;;;;;;5100182;28;20028;-76
2021/04/30 18:22:05;;;;;;;1.77;1.30;;;9.30;83.50;;;;;;5098739;28;20043;-76
2021/04/30 18:24:31;;;;;;;1.65;1.15;;;9.30;83.50;;;;;;5099028;28;20054;-75
2021/04/30 18:26:58;;;;;;;1.27;1.08;;;9.30;83.50;;;;;;5097107;28;20040;-76
2021/04/30 18:29:24;;;;;;;1.95;1.40;;;9.30;83.50;;;;;;5096625;28;20091;-75
2021/04/30 18:31:51;;;;;;;2.28;1.30;;;9.30;83.60;;;;;;5096279;28;20032;-75
2021/04/30 18:34:17;;;;;;;2.47;1.65;;;9.30;83.60;;;;;;5110799;28;20167;-76
2021/04/30 18:36:43;;;;;;;2.53;1.52;;;9.20;83.50;;;;;;5084943;28;20040;-76
2021/04/30 18:39:10;;;;;;;3.03;1.58;;;9.20;83.50;;;;;;5102417;28;20062;-76
2021/04/30 18:41:37;;;;;;;3.05;1.60;;;9.20;83.50;;;;;;5087096;28;20040;-76
2021/04/30 18:44:04;;;;;;;3.60;1.95;;;9.20;83.50;;;;;;5110655;28;20052;-76
2021/04/30 18:46:31;;;;;;;2.20;1.23;;;9.20;83.50;;;;;;5094381;28;20058;-76
2021/04/30 18:48:57;;;;;;;2.22;1.40;;;9.20;83.50;;;;;;5111090;28;20055;-75
2021/04/30 18:51:23;;;;;;;2.17;1.15;;;9.20;83.50;;;;;;5092147;28;20041;-76
2021/04/30 18:53:49;;;;;;;1.83;1.13;;;9.20;83.60;;;;;;5093455;28;20070;-75
2021/04/30 18:56:15;;;;;;;1.67;1.27;;;9.20;83.60;;;;;;5075831;28;20039;-76
2021/04/30 18:58:41;;;;;;;1.60;1.23;;;9.20;83.60;;;;;;5093482;28;20040;-76
2021/04/30 19:01:07;;;;;;;2.25;1.42;;;9.20;83.60;;;;;;5111660;28;20043;-75
2021/04/30 19:03:33;;;;;;;2.65;1.42;;;9.20;83.60;;;;;;5111045;28;20498;-77
2021/04/30 19:05:58;;;;;;;2.10;1.52;;;9.10;83.50;;;;;;5116126;28;20040;-77
2021/04/30 19:08:24;;;;;;;3.40;1.88;;;9.20;83.70;;;;;;5116711;28;20115;-76
2021/04/30 19:10:50;;;;;;;4.13;1.77;;;9.10;83.60;;;;;;5116431;28;20031;-76
2021/04/30 19:13:16;;;;;;;3.65;1.70;;;9.10;83.60;;;;;;5099312;28;20052;-76
2021/04/30 19:15:42;;;;;;;3.38;1.80;;;9.10;83.60;;;;;;4995467;28;20131;-76
2021/04/30 19:18:10;;;;;;;2.47;1.60;;;9.10;83.60;;;;;;4964032;28;20043;-76
2021/04/30 19:20:38;;;;;;;3.30;1.90;;;9.10;83.70;;;;;;4975572;28;20118;-75
2021/04/30 19:23:06;;;;;;;2.80;1.75;;;9.10;83.70;;;;;;4996048;28;20062;-76
2021/04/30 19:25:33;;;;;;;2.80;1.70;;;9.10;83.70;;;;;;4995641;28;20050;-76
2021/04/30 19:27:58;;;;;;;2.33;1.80;;;9.10;83.70;;;;;;4979058;28;20063;-75
2021/04/30 19:30:27;;;;;;;1.67;1.30;;;9.00;83.70;;;;;;4990669;28;20204;-75
2021/04/30 19:32:54;;;;;;;2.42;1.45;;;9.00;83.70;;;;;;4979900;28;20073;-76
2021/04/30 19:35:21;;;;;;;2.70;1.70;;;9.00;83.70;;;;;;4995878;28;20094;-77
2021/04/30 19:37:48;;;;;;;1.92;1.30;;;9.10;83.70;;;;;;4995876;28;20149;-78
2021/04/30 19:40:14;;;;;;;1.60;1.30;;;9.10;83.70;;;;;;4981108;28;20094;-76
2021/04/30 19:42:40;;;;;;;1.85;1.35;;;9.10;83.70;;;;;;4999295;28;20159;-76
2021/04/30 19:45:06;;;;;;;1.10;0.98;;;9.00;83.70;;;;;;4977822;28;20058;-76
2021/04/30 19:47:33;;;;;;;1.73;1.23;;;9.10;83.70;;;;;;5092185;28;20075;-75
2021/04/30 19:50:00;;;;;;;2.65;1.40;;;9.00;83.70;;;;;;5072082;28;20074;-76
2021/04/30 19:52:26;;;;;;;0.98;0.85;;;9.10;83.80;;;;;;5051350;28;20040;-75
2021/04/30 19:54:52;;;;;;;1.13;1.00;;;9.00;83.80;;;;;;5086725;28;20032;-76
2021/04/30 19:57:18;;;;;;;2.00;1.35;;;9.10;83.80;;;;;;5105756;28;20048;-74
2021/04/30 19:59:44;;;;;;;3.13;1.67;;;9.00;83.80;;;;;;5101159;28;20047;-75
2021/04/30 20:02:09;;;;;;;2.45;1.30;;;9.00;83.80;;;;;;5105267;28;20040;-76
2021/04/30 20:04:35;;;;;;;2.53;1.33;;;9.00;83.80;;;;;;5105009;28;20123;-74
2021/04/30 20:07:01;;;;;;;1.88;1.23;;;9.00;83.80;;;;;;5103282;28;20047;-74
2021/04/30 20:09:28;;;;;;;3.80;2.10;;;8.90;83.80;;;;;;5105139;28;20055;-75
2021/04/30 20:11:54;;;;;;;2.28;1.55;;;8.90;83.90;;;;;;5099419;28;20086;-74
2021/04/30 20:14:19;;;;;;;2.35;1.40;;;8.90;83.90;;;;;;5062160;28;20520;-74
2021/04/30 20:16:46;;;;;;;2.03;1.40;;;8.90;84.00;;;;;;5107089;28;20039;-75
2021/04/30 20:19:11;;;;;;;2.60;1.40;;;8.90;83.90;;;;;;5076226;28;20040;-74
2021/04/30 20:21:38;;;;;;;3.70;2.00;;;8.90;84.00;;;;;;5089455;28;20470;-75
2021/04/30 20:24:06;;;;;;;3.08;1.48;;;8.90;84.00;;;;;;5082818;28;20046;-74
2021/04/30 20:26:31;;;;;;;1.67;1.33;;;8.80;83.90;;;;;;5069039;28;20047;-74
2021/04/30 20:28:57;;;;;;;2.20;1.55;;;8.90;83.90;;;;;;5068647;28;20028;-75
2021/04/30 20:31:23;;;;;;;2.10;1.23;;;8.90;83.90;;;;;;5089276;28;20089;-75
2021/04/30 20:33:48;;;;;;;1.45;1.13;;;8.90;83.80;;;;;;5077775;28;20104;-76
2021/04/30 20:36:14;;;;;;;1.83;1.30;;;8.80;84.20;;;;;;5088890;28;20052;-75
2021/04/30 20:38:40;;;;;;;2.65;1.27;;;8.90;83.80;;;;;;5069293;28;20051;-75
2021/04/30 20:41:06;;;;;;;2.05;1.45;;;8.90;83.90;;;;;;5104235;28;20080;-75
2021/04/30 20:43:32;;;;;;;2.78;1.42;;;8.80;83.90;;;;;;5111436;28;20064;-75
2021/04/30 20:45:59;;;;;;;3.47;1.60;;;8.80;83.90;;;;;;5113174;28;20113;-76
2021/04/30 20:48:25;;;;;;;2.05;1.42;;;8.80;83.90;;;;;;5109229;28;20043;-77
2021/04/30 20:50:51;;;;;;;1.58;1.30;;;8.80;83.90;;;;;;5074904;28;20049;-75
2021/04/30 20:53:19;;;;;;;1.63;1.10;;;8.80;83.90;;;;;;5106001;28;20501;-75
2021/04/30 20:55:46;;;;;;;1.63;1.15;;;8.80;83.90;;;;;;5084539;28;20036;-76
2021/04/30 20:58:12;;;;;;;1.48;1.00;;;8.80;83.90;;;;;;5100736;28;20516;-74
2021/04/30 21:00:38;;;;;;;2.45;1.40;;;8.90;83.90;;;;;;5096044;28;20028;-74
2021/04/30 21:03:06;;;;;;;1.75;1.33;;;8.80;83.90;;;;;;5103340;28;20043;-76
2021/04/30 21:05:32;;;;;;;2.10;1.20;;;8.90;83.90;;;;;;5070019;28;20047;-76
2021/04/30 21:07:57;;;;;;;2.45;1.35;;;8.90;83.90;;;;;;5060499;28;20032;-75
2021/04/30 21:10:31;;;;;;;1.85;1.30;;;8.80;83.80;;;;;;5094760;28;20040;-73
2021/04/30 21:15:38;;;;;;;2.65;1.77;;;8.80;83.90;;;;;;5102225;28;20043;-74
2021/04/30 21:18:04;;;;;;;2.97;1.85;;;8.80;83.90;;;;;;5056224;28;20032;-76
2021/04/30 21:20:30;;;;;;;2.30;1.52;;;8.80;83.90;;;;;;5104470;28;20103;-75
2021/04/30 21:22:55;;;;;;;2.78;1.50;;;8.70;83.90;;;;;;5107601;28;20043;-74
2021/04/30 21:25:21;;;;;;;2.53;1.45;;;8.80;84.00;;;;;;5104659;28;20040;-74
2021/04/30 21:27:47;;;;;;;2.10;1.33;;;8.80;84.00;;;;;;5102377;28;20040;-74
2021/04/30 21:30:13;;;;;;;2.63;1.50;;;8.70;84.00;;;;;;5086808;28;20048;-74
2021/04/30 21:32:38;;;;;;;2.92;1.63;;;8.70;84.10;;;;;;5101320;28;20044;-75
2021/04/30 21:35:05;;;;;;;1.98;1.35;;;8.70;84.10;;;;;;5104094;28;20103;-75
2021/04/30 21:37:31;;;;;;;2.35;1.33;;;8.70;84.20;;;;;;5086921;28;20127;-75
2021/04/30 21:39:57;;;;;;;1.70;1.20;;;8.70;84.20;;;;;;5105173;28;20040;-74
2021/04/30 21:42:26;;;;;;;1.60;1.20;;;8.70;84.30;;;;;;5105640;28;20092;-74
2021/04/30 21:44:52;;;;;;;2.15;1.38;;;8.60;84.30;;;;;;5085586;28;20078;-74
2021/04/30 21:47:18;;;;;;;1.45;1.02;;;8.60;84.30;;;;;;5101504;28;20036;-74
2021/04/30 21:49:43;;;;;;;4.78;1.60;;;8.60;84.40;;;;;;5082944;28;20042;-74
2021/04/30 21:52:09;;;;;;;2.53;1.60;;;8.50;84.40;;;;;;5079748;28;20044;-74
2021/04/30 21:54:35;;;;;;;2.20;1.30;;;8.50;84.50;;;;;;5079826;28;20071;-74
2021/04/30 21:57:00;;;;;;;1.67;1.15;;;8.50;84.50;;;;;;5058932;28;20555;-74
2021/04/30 21:59:26;;;;;;;1.83;1.30;;;8.50;84.50;;;;;;5094329;28;20059;-74
2021/04/30 22:01:52;;;;;;;1.73;1.30;;;8.50;84.50;;;;;;5107908;28;20036;-76
2021/04/30 22:04:20;;;;;;;1.52;1.15;;;8.40;84.40;;;;;;5113498;28;20063;-76
2021/04/30 22:06:47;;;;;;;2.03;1.42;;;8.40;84.50;;;;;;5105915;28;20048;-75
2021/04/30 22:09:17;;;;;;;2.15;1.33;;;8.40;84.60;;;;;;5079487;28;20086;-74
2021/04/30 22:11:47;;;;;;;1.80;1.17;;;8.40;84.60;;;;;;5094493;28;20052;-76
2021/04/30 22:14:13;;;;;;;1.95;1.33;;;8.40;84.60;;;;;;5075739;28;20119;-74
2021/04/30 22:16:40;;;;;;;1.77;1.17;;;8.30;84.50;;;;;;5072906;28;20086;-74
2021/04/30 22:19:07;;;;;;;1.83;1.08;;;8.40;84.60;;;;;;5108671;28;20056;-76
2021/04/30 22:21:33;;;;;;;2.25;1.42;;;8.40;85.20;;;;;;5096629;28;20054;-75
2021/04/30 22:23:59;;;;;;;1.58;1.10;;;8.30;84.60;;;;;;5067563;28;20043;-73
2021/04/30 22:26:25;;;;;;;1.67;1.23;;;8.30;84.60;;;;;;5072694;28;20040;-74
2021/04/30 22:28:52;;;;;;;2.13;1.40;;;8.30;84.60;;;;;;5092540;28;20044;-74
2021/04/30 22:31:18;;;;;;;2.22;1.20;;;8.30;84.70;;;;;;5075091;28;20040;-75
2021/04/30 22:33:43;;;;;;;1.63;1.13;;;8.30;84.70;;;;;;5057462;28;20032;-75
2021/04/30 22:36:09;;;;;;;1.67;1.20;;;8.40;84.70;;;;;;5092846;28;20119;-74
2021/04/30 22:38:35;;;;;;;1.67;1.30;;;8.30;84.70;;;;;;5073749;28;20115;-75
2021/04/30 22:41:01;;;;;;;2.50;1.27;;;8.30;84.60;;;;;;5073702;28;20032;-75
2021/04/30 22:43:27;;;;;;;2.13;1.38;;;8.30;84.60;;;;;;5093653;28;20047;-74
2021/04/30 22:45:52;;;;;;;3.03;1.38;;;8.30;84.60;;;;;;5093983;28;20078;-74
2021/04/30 22:48:18;;;;;;;2.47;1.58;;;8.40;84.70;;;;;;5075425;28;20481;-76
2021/04/30 22:50:48;;;;;;;2.25;1.60;;;8.30;84.60;;;;;;5074997;28;20043;-74
2021/04/30 22:53:14;;;;;;;3.55;1.50;;;8.30;85.20;;;;;;5056443;28;20048;-74
2021/04/30 22:55:39;;;;;;;1.55;1.23;;;8.30;84.70;;;;;;5092294;28;20032;-73
2021/04/30 22:58:05;;;;;;;2.10;1.23;;;8.20;84.60;;;;;;5074077;28;20066;-74
2021/04/30 23:00:31;;;;;;;2.90;1.40;;;8.20;84.60;;;;;;5092069;28;20039;-74
2021/04/30 23:02:57;;;;;;;2.88;1.55;;;8.20;84.60;;;;;;5092236;28;20040;-73
2021/04/30 23:05:23;;;;;;;1.65;1.08;;;8.20;84.80;;;;;;5074404;28;20545;-73
2021/04/30 23:07:49;;;;;;;1.60;1.15;;;8.00;84.70;;;;;;5073186;28;20086;-74
2021/04/30 23:10:14;;;;;;;1.58;1.20;;;8.10;84.90;;;;;;5073957;28;20043;-74
2021/04/30 23:12:40;;;;;;;2.38;1.80;;;8.00;85.00;;;;;;5073793;28;20090;-73
2021/04/30 23:15:07;;;;;;;0.85;0.82;;;8.00;85.00;;;;;;5093357;28;20122;-74
2021/04/30 23:17:32;;;;;;;1.58;1.15;;;8.00;85.10;;;;;;5077526;28;20051;-73
2021/04/30 23:19:59;;;;;;;1.45;0.90;;;7.90;85.00;;;;;;5095726;28;20114;-73
2021/04/30 23:22:25;;;;;;;0.90;0.80;;;8.00;85.10;;;;;;5077613;28;20032;-74
2021/04/30 23:24:51;;;;;;;1.67;1.02;;;7.90;85.10;;;;;;5060837;28;20044;-73
2021/04/30 23:27:17;;;;;;;1.85;1.08;;;7.90;85.10;;;;;;5060593;28;20435;-74
2021/04/30 23:29:45;;;;;;;1.00;0.90;;;7.90;85.20;;;;;;5077312;28;20048;-74
2021/04/30 23:32:12;;;;;;;0.80;0.70;;;7.90;85.10;;;;;;5095295;28;20405;-73
2021/04/30 23:34:38;;;;;;;1.27;0.93;;;7.90;85.10;;;;;;5077170;28;20043;-74
2021/04/30 23:37:04;;;;;;;1.92;1.20;;;7.90;85.00;;;;;;5095450;28;20042;-74
2021/04/30 23:39:29;;;;;;;1.08;0.90;;;7.90;85.00;;;;;;5095837;28;20063;-74
2021/04/30 23:41:55;;;;;;;0.70;0.60;;;7.90;85.00;;;;;;5095093;28;20497;-74
2021/04/30 23:44:21;;;;;;;1.40;0.95;;;7.90;85.00;;;;;;5060253;28;20043;-73
2021/04/30 23:46:47;;;;;;;1.50;0.90;;;7.90;85.00;;;;;;5076767;28;20054;-73
2021/04/30 23:49:12;;;;;;;1.95;1.10;;;8.00;85.00;;;;;;5076791;28;20044;-74
2021/04/30 23:51:38;;;;;;;1.65;1.10;;;7.90;84.90;;;;;;5059955;28;20110;-74
2021/04/30 23:54:04;;;;;;;2.78;1.30;;;7.90;84.90;;;;;;5075157;28;20036;-74
2021/04/30 23:56:30;;;;;;;1.60;1.20;;;7.90;84.90;;;;;;5076614;28;20504;-74
2021/04/30 23:58:56;;;;;;;1.35;0.95;;;7.90;84.90;;;;;;5076114;28;20033;-74
